ePrivacy and GPDR Cookie Consent by Cookie Consent
EmailTwitter


Observations de surface / Québec / CYQB (71714)

Régions: Québec | Canada | États-Unis | Europe | France | UK | Ailleurs
Station
Affichage
Infos & localisation pour CYQB (71714) | Aide pour décoder les METARs

Observations prises le 2021-04-23 à 08H00 UTC à QUEBEC A, QB (CYQB)

Etat du ciel: partiellement nuageux.

Température: 1.0 Celsius

Point de rosée: -7.0 Celsius

Humidité relative: 55%

Facteur vent: -3.

Facteur vent (rafales): -5.

Vents: Ouest à 17 km/h ou 9 noeuds.

Rafale du vent: 33 km/h ou 18 noeuds.

Pression au niveau moyen de la mer: 99.82 kilopascals.

Calage altimétrique: 99.76 kilopascals ou 29.46 pouces de mercure.

Visibilité horizontale: 15.00 milles terrestres ou 24.00 kilomètres.

Hauteur du plafond: 3962 mètres ( 13000 pieds ).

Observation METAR:

CYQB 230800Z 27009G18KT 240V310 15SM SCT049 BKN130 01/M07 A2946 RMK SC3AC3

SLP982=